Time;durP1;ratioP1;P1;durP2;ratioP2;P2;SDS_P1;SDS_P2;PMS_P1;PMS_P2;Temp;Humidity;BMP_temperature;BMP_pressure;BME280_temperature;BME280_humidity;BME280_pressure;Samples;Min_cycle;Max_cycle;Signal;HPM_P1;HPM_P2
2021/11/05 00:02:57;;;;;;;21.52;12.25;;;;;;;5.66;100.00;101407.56;10583415;28;20044;-59
2021/11/05 00:08:04;;;;;;;20.40;14.07;;;;;;;5.69;100.00;101415.28;10583420;28;20047;-58
2021/11/05 00:13:08;;;;;;;15.38;10.27;;;;;;;5.61;100.00;101414.63;10583034;28;20475;-59
2021/11/05 00:18:10;;;;;;;18.70;12.68;;;;;;;5.59;100.00;101407.72;10583069;28;20050;-59
2021/11/05 00:23:14;;;;;;;22.00;12.85;;;;;;;5.47;100.00;101417.59;10582823;28;20039;-58
2021/11/05 00:28:17;;;;;;;18.48;13.30;;;;;;;5.51;100.00;101419.19;10582463;28;20491;-59
2021/11/05 00:33:19;;;;;;;16.05;11.63;;;;;;;5.58;100.00;101429.41;10582748;28;20055;-59
2021/11/05 00:38:21;;;;;;;22.85;13.95;;;;;;;5.40;100.00;101442.88;10582501;28;20074;-59
2021/11/05 00:43:24;;;;;;;18.98;13.63;;;;;;;5.56;100.00;101443.31;10563313;28;20488;-58
2021/11/05 00:48:26;;;;;;;26.98;13.48;;;;;;;5.45;100.00;101446.19;10581892;28;20139;-59
2021/11/05 00:53:28;;;;;;;23.42;11.90;;;;;;;5.47;100.00;101454.78;10581668;28;20495;-58
2021/11/05 00:58:30;;;;;;;19.90;12.13;;;;;;;5.45;100.00;101464.38;10581590;28;20395;-59
2021/11/05 01:03:33;;;;;;;15.48;10.77;;;;;;;5.58;100.00;101463.16;10581745;28;20054;-59
2021/11/05 01:08:35;;;;;;;21.05;12.88;;;;;;;5.46;100.00;101471.25;10581607;28;20415;-59
2021/11/05 01:13:38;;;;;;;16.17;11.45;;;;;;;5.39;100.00;101475.75;10581466;28;20051;-59
2021/11/05 01:18:41;;;;;;;15.57;10.98;;;;;;;5.42;100.00;101482.63;10581420;28;20039;-59
2021/11/05 01:23:43;;;;;;;13.85;8.98;;;;;;;5.40;100.00;101487.00;10581575;28;20044;-59
2021/11/05 01:28:45;;;;;;;13.10;9.80;;;;;;;5.57;100.00;101496.97;10581434;28;20055;-58
2021/11/05 01:33:48;;;;;;;20.45;10.43;;;;;;;5.54;100.00;101499.66;10563643;28;20051;-60
2021/11/05 01:38:50;;;;;;;13.20;8.85;;;;;;;5.56;100.00;101509.13;10580971;28;20422;-59
2021/11/05 01:43:53;;;;;;;16.88;10.23;;;;;;;5.59;100.00;101513.38;10580779;28;20047;-58
2021/11/05 01:48:56;;;;;;;13.27;8.38;;;;;;;5.53;100.00;101503.13;10581109;28;20403;-58
2021/11/05 01:53:58;;;;;;;9.73;8.10;;;;;;;5.51;100.00;101521.34;10568482;28;20043;-59
2021/11/05 01:59:01;;;;;;;11.15;8.70;;;;;;;5.48;100.00;101528.34;10588307;28;20044;-59
2021/11/05 02:04:03;;;;;;;9.95;7.57;;;;;;;5.44;100.00;101537.13;10588165;28;20483;-59
2021/11/05 02:09:06;;;;;;;11.10;7.93;;;;;;;5.56;100.00;101534.22;10587934;28;20376;-59
2021/11/05 02:14:15;;;;;;;16.40;8.55;;;;;;;5.52;100.00;101536.03;10569933;28;20044;-58
2021/11/05 02:19:20;;;;;;;10.85;7.10;;;;;;;5.57;100.00;101536.78;10587739;28;20044;-58
2021/11/05 02:24:24;;;;;;;11.20;7.40;;;;;;;5.52;100.00;101549.03;10587488;28;20055;-59
2021/11/05 02:29:30;;;;;;;10.70;7.00;;;;;;;5.60;100.00;101554.06;10587302;28;20051;-59
2021/11/05 02:34:32;;;;;;;12.13;7.95;;;;;;;5.50;100.00;101555.19;10587401;28;20040;-59
2021/11/05 02:39:35;;;;;;;9.50;6.78;;;;;;;5.53;100.00;101561.16;10586846;28;20052;-59
2021/11/05 02:44:37;;;;;;;13.60;7.15;;;;;;;5.48;100.00;101570.78;10586510;28;20059;-59
2021/11/05 02:49:44;;;;;;;15.30;6.35;;;;;;;5.52;100.00;101574.16;10586754;28;20060;-58
2021/11/05 02:54:46;;;;;;;13.68;6.47;;;;;;;5.45;100.00;101572.63;10568312;28;20404;-58
2021/11/05 02:59:49;;;;;;;15.55;7.95;;;;;;;5.52;100.00;101582.81;10586214;28;20044;-58
2021/11/05 03:04:52;;;;;;;15.75;7.68;;;;;;;5.51;100.00;101596.66;10585426;28;20071;-59
2021/11/05 03:09:55;;;;;;;9.57;7.18;;;;;;;5.44;100.00;101604.66;10585460;28;20403;-58
2021/11/05 03:14:57;;;;;;;11.60;6.88;;;;;;;5.54;100.00;101604.41;10585437;28;20372;-59
2021/11/05 03:19:59;;;;;;;12.25;6.93;;;;;;;5.44;100.00;101615.03;10585409;28;20062;-58
2021/11/05 03:25:02;;;;;;;9.45;6.25;;;;;;;5.55;100.00;101624.31;10585450;28;20039;-59
2021/11/05 03:30:06;;;;;;;12.43;5.97;;;;;;;5.64;100.00;101630.19;10584870;28;20052;-58
2021/11/05 03:35:10;;;;;;;9.27;5.35;;;;;;;5.65;100.00;101627.53;10585311;28;20044;-58
2021/11/05 03:40:14;;;;;;;10.32;5.43;;;;;;;5.49;100.00;101640.00;10584302;28;20043;-58
2021/11/05 03:45:20;;;;;;;9.25;5.20;;;;;;;5.61;100.00;101653.63;10583808;28;20055;-59
2021/11/05 03:50:23;;;;;;;11.93;5.47;;;;;;;5.69;100.00;101651.69;10583861;28;20490;-58
2021/11/05 03:55:25;;;;;;;12.63;5.65;;;;;;;5.72;100.00;101664.63;10583720;28;20525;-59
2021/11/05 04:00:28;;;;;;;11.65;6.10;;;;;;;5.80;100.00;101667.91;10565658;28;20043;-59
2021/11/05 04:05:30;;;;;;;18.58;6.28;;;;;;;5.80;100.00;101678.31;10565607;28;20079;-58
2021/11/05 04:10:34;;;;;;;12.32;6.18;;;;;;;5.65;100.00;101682.09;10582734;28;20457;-59
2021/11/05 04:15:36;;;;;;;11.23;7.10;;;;;;;5.63;100.00;101699.47;10582441;28;20043;-59
2021/11/05 04:20:40;;;;;;;8.38;5.75;;;;;;;5.60;100.00;101699.53;10583491;28;20047;-59
2021/11/05 04:25:45;;;;;;;13.13;7.15;;;;;;;5.47;100.00;101704.13;10582686;28;20047;-59
2021/11/05 04:30:47;;;;;;;18.27;8.90;;;;;;;5.36;100.00;101703.50;10582851;28;20048;-59
2021/11/05 04:35:50;;;;;;;15.45;9.13;;;;;;;5.21;100.00;101718.53;10582383;28;20047;-59
2021/11/05 04:40:53;;;;;;;12.18;7.47;;;;;;;5.38;100.00;101725.97;10582040;28;20058;-58
2021/11/05 04:45:55;;;;;;;12.43;5.82;;;;;;;5.83;100.00;101724.97;10581925;28;20055;-59
2021/11/05 04:50:58;;;;;;;12.27;8.10;;;;;;;5.69;100.00;101738.28;10581792;28;20491;-58
2021/11/05 04:56:00;;;;;;;9.48;7.35;;;;;;;5.51;100.00;101738.69;10581820;28;20380;-59
2021/11/05 05:01:03;;;;;;;18.13;10.70;;;;;;;5.39;100.00;101758.81;10582093;28;20046;-59
2021/11/05 05:06:05;;;;;;;21.15;11.75;;;;;;;5.10;100.00;101762.00;10581793;28;20044;-59
2021/11/05 05:11:08;;;;;;;15.63;11.57;;;;;;;5.18;100.00;101764.47;10581965;28;20058;-59
2021/11/05 05:16:10;;;;;;;15.95;10.30;;;;;;;5.17;100.00;101770.53;10581714;28;20046;-58
2021/11/05 05:21:13;;;;;;;17.17;11.40;;;;;;;5.33;100.00;101779.75;10581463;28;20044;-58
2021/11/05 05:26:16;;;;;;;20.60;14.88;;;;;;;5.06;100.00;101778.53;10582681;28;20410;-58
2021/11/05 05:31:18;;;;;;;22.40;16.63;;;;;;;5.17;100.00;101794.75;10589665;28;20052;-59
2021/11/05 05:36:20;;;;;;;21.92;13.48;;;;;;;5.26;100.00;101803.25;10589480;28;20418;-58
2021/11/05 05:41:23;;;;;;;21.17;14.27;;;;;;;5.17;100.00;101809.47;10588774;28;20407;-58
2021/11/05 05:46:25;;;;;;;19.98;15.40;;;;;;;5.02;100.00;101821.00;10589499;28;20163;-58
2021/11/05 05:51:32;;;;;;;22.15;14.55;;;;;;;5.08;100.00;101823.50;10570586;28;20078;-59
2021/11/05 05:56:34;;;;;;;20.70;14.32;;;;;;;5.03;100.00;101835.69;10589204;28;20051;-58
2021/11/05 06:01:37;;;;;;;19.70;11.10;;;;;;;5.08;100.00;101844.25;10570410;28;20506;-58
2021/11/05 06:06:39;;;;;;;19.08;13.88;;;;;;;5.19;100.00;101844.06;10588939;28;20044;-58
2021/11/05 06:11:41;;;;;;;19.40;11.45;;;;;;;5.26;100.00;101845.69;10588434;28;20044;-57
2021/11/05 06:16:44;;;;;;;21.70;12.30;;;;;;;5.44;100.00;101847.06;10587948;28;20043;-58
2021/11/05 06:21:46;;;;;;;17.90;9.57;;;;;;;5.44;100.00;101848.81;10587378;28;20044;-58
2021/11/05 06:26:49;;;;;;;12.63;8.02;;;;;;;5.59;100.00;101857.13;10587707;28;20043;-58
2021/11/05 06:31:52;;;;;;;22.73;10.68;;;;;;;5.42;100.00;101867.00;10587108;28;20039;-58
2021/11/05 06:36:54;;;;;;;20.90;8.00;;;;;;;5.45;100.00;101881.69;10587125;28;20040;-59
2021/11/05 06:41:57;;;;;;;14.32;8.57;;;;;;;5.43;100.00;101886.03;10585967;28;20051;-58
2021/11/05 06:47:00;;;;;;;13.57;8.13;;;;;;;5.51;100.00;101898.00;10587052;28;20055;-58
2021/11/05 06:52:03;;;;;;;20.15;9.35;;;;;;;5.55;100.00;101915.25;10586506;28;20055;-59
2021/11/05 06:57:06;;;;;;;14.32;7.90;;;;;;;5.72;100.00;101919.28;10586437;28;20048;-58
2021/11/05 07:02:08;;;;;;;21.27;11.35;;;;;;;5.56;100.00;101929.97;10586046;28;20044;-59
2021/11/05 07:07:11;;;;;;;22.63;13.15;;;;;;;5.74;100.00;101933.09;10567784;28;20051;-59
2021/11/05 07:12:13;;;;;;;15.25;12.27;;;;;;;5.67;100.00;101939.31;10585594;28;20043;-58
2021/11/05 07:17:15;;;;;;;20.20;13.05;;;;;;;6.11;100.00;101953.19;10585409;28;20051;-58
2021/11/05 07:22:18;;;;;;;13.70;10.18;;;;;;;6.66;100.00;101962.44;10585359;28;20055;-59
2021/11/05 07:27:20;;;;;;;20.52;10.52;;;;;;;6.32;100.00;101962.28;10585069;28;20058;-59
2021/11/05 07:32:23;;;;;;;11.38;8.38;;;;;;;5.95;100.00;101976.00;10584665;28;20047;-59
2021/11/05 07:37:25;;;;;;;18.27;9.23;;;;;;;6.45;100.00;101981.09;10584713;28;20047;-58
2021/11/05 07:42:28;;;;;;;10.00;7.22;;;;;;;6.49;100.00;101983.63;10584937;28;20051;-58
2021/11/05 07:47:31;;;;;;;11.82;7.68;;;;;;;6.59;100.00;101992.09;10584801;28;20141;-59
2021/11/05 07:52:33;;;;;;;9.98;6.22;;;;;;;7.22;100.00;101998.44;10583815;28;20040;-59
2021/11/05 07:57:36;;;;;;;8.23;4.32;;;;;;;7.51;100.00;102009.06;10584376;28;20051;-58
2021/11/05 08:02:39;;;;;;;9.88;4.30;;;;;;;8.47;100.00;102002.13;10583638;28;20043;-58
2021/11/05 08:07:41;;;;;;;14.32;4.72;;;;;;;8.55;100.00;102015.81;10584186;28;20082;-59
2021/11/05 08:12:44;;;;;;;7.63;3.80;;;;;;;8.54;100.00;102027.19;10565365;28;20044;-59
2021/11/05 08:17:46;;;;;;;6.70;4.10;;;;;;;9.26;100.00;102039.75;10583610;28;20047;-58
2021/11/05 08:22:49;;;;;;;11.75;4.18;;;;;;;9.62;100.00;102036.88;10583003;28;20044;-59
2021/11/05 08:27:51;;;;;;;4.25;2.92;;;;;;;9.90;100.00;102049.88;10582492;28;20054;-59
2021/11/05 08:32:57;;;;;;;4.88;2.90;;;;;;;10.55;100.00;102051.03;10582618;28;20047;-59
2021/11/05 08:38:00;;;;;;;6.60;2.10;;;;;;;10.77;100.00;102051.06;10582561;28;20050;-59
2021/11/05 08:43:02;;;;;;;7.70;3.10;;;;;;;11.25;99.13;102062.34;10582136;28;20051;-59
2021/11/05 08:48:05;;;;;;;4.50;2.70;;;;;;;12.48;98.30;102068.56;10563918;28;20055;-59
2021/11/05 08:53:07;;;;;;;8.43;2.20;;;;;;;12.58;97.73;102067.22;10581934;28;20062;-59
2021/11/05 08:58:10;;;;;;;4.32;2.20;;;;;;;11.78;92.07;102081.16;10582427;28;20083;-59
2021/11/05 09:03:12;;;;;;;5.85;2.25;;;;;;;12.31;94.57;102085.09;10590467;28;20043;-59
2021/11/05 09:08:15;;;;;;;6.40;2.22;;;;;;;13.50;91.41;102094.44;10595958;28;20051;-60
2021/11/05 09:13:17;;;;;;;3.97;2.10;;;;;;;12.90;88.43;102101.69;10595533;28;20046;-60
2021/11/05 09:18:20;;;;;;;7.43;3.38;;;;;;;13.04;85.23;102093.16;10595766;28;20055;-59
2021/11/05 09:23:24;;;;;;;10.13;2.17;;;;;;;15.22;85.45;102096.91;10595702;28;20043;-59
2021/11/05 09:28:26;;;;;;;6.65;2.70;;;;;;;15.11;77.98;102099.28;10595458;28;20047;-60
2021/11/05 09:33:29;;;;;;;7.50;2.22;;;;;;;15.10;83.14;102108.16;10595423;28;20132;-59
2021/11/05 09:38:32;;;;;;;6.57;2.40;;;;;;;15.85;72.73;102116.19;10595269;28;20039;-60
2021/11/05 09:43:34;;;;;;;3.63;2.10;;;;;;;16.99;73.34;102128.66;10576995;28;20052;-61
2021/11/05 09:48:39;;;;;;;2.78;2.25;;;;;;;16.67;76.74;102139.41;10594853;28;20056;-61
2021/11/05 09:53:42;;;;;;;4.38;1.95;;;;;;;16.28;66.74;102134.78;10595380;28;20044;-61
2021/11/05 09:58:45;;;;;;;5.00;2.08;;;;;;;16.92;68.90;102137.94;10577394;28;20047;-59
2021/11/05 10:03:47;;;;;;;3.78;2.10;;;;;;;17.52;70.78;102144.69;10594691;28;20047;-60
2021/11/05 10:08:53;;;;;;;7.15;2.15;;;;;;;16.33;69.33;102165.28;10595303;28;20055;-60
2021/11/05 10:13:57;;;;;;;7.03;2.78;;;;;;;15.36;72.22;102168.19;10591285;28;20043;-60
2021/11/05 10:19:05;;;;;;;6.13;2.70;;;;;;;13.57;87.65;102166.88;10587666;28;20488;-59
2021/11/05 10:24:19;;;;;;;8.60;2.67;;;;;;;13.24;86.29;102182.47;10587840;28;20044;-60
2021/11/05 10:29:27;;;;;;;10.77;3.20;;;;;;;13.10;87.58;102187.53;10587224;28;20051;-59
2021/11/05 10:34:49;;;;;;;8.10;2.40;;;;;;;13.68;80.96;102184.78;10587184;28;20043;-60
2021/11/05 10:39:56;;;;;;;;;;;;;;;13.22;90.14;102202.72;10587138;28;20479;-59
2021/11/05 10:45:22;;;;;;;8.43;2.27;;;;;;;15.36;75.12;102196.38;10586480;28;19920;-59
2021/11/05 10:50:31;;;;;;;5.63;3.05;;;;;;;13.12;86.40;102204.06;10586470;28;20407;-59
2021/11/05 10:55:47;;;;;;;7.15;2.53;;;;;;;13.83;84.72;102206.88;10586455;28;20405;-59
2021/11/05 11:00:56;;;;;;;9.80;3.13;;;;;;;15.91;76.05;102206.50;10587345;28;20058;-60
2021/11/05 11:06:04;;;;;;;6.10;2.20;;;;;;;16.10;78.72;102208.06;10585987;28;20391;-60
2021/11/05 11:11:26;;;;;;;7.38;2.55;;;;;;;16.11;73.45;102212.44;10586306;28;20054;-61
2021/11/05 11:16:30;;;;;;;4.85;2.20;;;;;;;15.32;74.02;102219.44;10586238;28;20050;-59
2021/11/05 11:21:51;;;;;;;10.82;2.80;;;;;;;12.44;87.16;102220.19;10585782;28;20062;-60
2021/11/05 11:26:55;;;;;;;7.07;2.10;;;;;;;13.38;84.36;102227.44;10584722;28;20132;-60
2021/11/05 11:32:00;;;;;;;5.57;2.85;;;;;;;12.28;89.58;102230.47;10585209;28;20057;-58
2021/11/05 11:37:03;;;;;;;7.40;2.72;;;;;;;12.31;92.40;102237.41;10584708;28;20402;-59
2021/11/05 11:42:08;;;;;;;7.57;2.58;;;;;;;12.94;91.60;102237.28;10584047;28;20399;-60
2021/11/05 11:47:13;;;;;;;11.57;2.67;;;;;;;12.57;89.12;102231.88;10566562;28;20056;-59
2021/11/05 11:52:18;;;;;;;7.80;2.45;;;;;;;12.34;90.84;102235.50;10584126;28;20170;-59
2021/11/05 11:57:23;;;;;;;5.78;2.40;;;;;;;12.23;94.56;102241.16;10584175;28;20051;-59
2021/11/05 12:02:44;;;;;;;11.48;2.65;;;;;;;12.09;94.54;102235.66;10583600;28;20044;-59
2021/11/05 12:08:17;;;;;;;4.80;1.80;;;;;;;12.33;89.94;102228.50;10583472;28;20396;-59
2021/11/05 12:13:35;;;;;;;4.40;1.88;;;;;;;13.01;89.13;102236.09;10583097;28;20048;-59
2021/11/05 12:18:59;;;;;;;6.97;2.20;;;;;;;13.07;87.84;102233.19;10583125;28;20048;-59
2021/11/05 12:24:17;;;;;;;11.38;2.72;;;;;;;12.93;87.74;102235.59;10583000;28;20071;-59
2021/11/05 12:29:35;;;;;;;6.90;1.95;;;;;;;12.80;89.72;102236.13;10582663;28;20051;-59
2021/11/05 12:34:37;;;;;;;4.25;1.73;;;;;;;12.49;91.53;102244.50;10582486;28;20065;-59
2021/11/05 12:39:41;;;;;;;11.20;1.90;;;;;;;12.30;90.87;102254.06;10581759;28;20070;-59
2021/11/05 12:45:03;;;;;;;5.15;1.42;;;;;;;12.28;92.94;102254.13;10564683;28;20058;-59
2021/11/05 12:50:06;;;;;;;9.30;1.85;;;;;;;11.79;94.09;102271.81;10582136;28;20505;-59
2021/11/05 12:55:08;;;;;;;3.28;1.20;;;;;;;11.57;96.90;102277.03;10582650;28;20043;-59
2021/11/05 13:00:11;;;;;;;8.20;1.33;;;;;;;11.57;99.19;102275.25;10581750;28;20079;-59
2021/11/05 13:05:14;;;;;;;6.00;2.33;;;;;;;11.36;100.00;102276.91;10581888;28;20048;-60
2021/11/05 13:10:26;;;;;;;9.38;1.83;;;;;;;11.58;100.00;102294.47;10581572;28;20058;-60
2021/11/05 13:15:33;;;;;;;7.53;1.90;;;;;;;11.05;100.00;102301.63;10581646;28;20372;-59
2021/11/05 13:20:46;;;;;;;4.28;1.33;;;;;;;10.90;100.00;102299.53;10581752;28;20040;-59
2021/11/05 13:25:50;;;;;;;3.55;1.40;;;;;;;10.85;100.00;102304.94;10581612;28;20043;-59
2021/11/05 13:30:57;;;;;;;8.50;1.63;;;;;;;11.08;100.00;102311.16;10581167;28;20048;-59
2021/11/05 13:36:09;;;;;;;3.90;2.20;;;;;;;11.40;100.00;102314.34;10581510;28;20047;-59
2021/11/05 13:41:18;;;;;;;3.75;1.52;;;;;;;11.07;100.00;102317.28;10563517;28;20043;-59
2021/11/05 13:46:25;;;;;;;8.60;3.50;;;;;;;10.86;100.00;102319.75;10580583;28;20517;-59
2021/11/05 13:51:30;;;;;;;7.28;1.30;;;;;;;10.84;100.00;102315.47;10589405;28;20078;-59
2021/11/05 13:56:34;;;;;;;2.03;1.20;;;;;;;10.96;100.00;102318.53;10589141;28;20051;-59
2021/11/05 14:01:37;;;;;;;4.28;1.10;;;;;;;11.30;100.00;102319.09;10570495;28;20043;-59
2021/11/05 14:06:45;;;;;;;4.57;1.60;;;;;;;11.14;100.00;102327.50;10570369;28;20054;-59
2021/11/05 14:11:49;;;;;;;3.95;0.88;;;;;;;11.14;100.00;102335.34;10588219;28;20055;-58
2021/11/05 14:17:01;;;;;;;3.17;1.20;;;;;;;11.32;100.00;102336.47;10588226;28;20070;-58
2021/11/05 14:22:06;;;;;;;4.70;0.80;;;;;;;11.12;100.00;102338.97;10587832;28;20051;-58
2021/11/05 14:27:08;;;;;;;3.67;0.60;;;;;;;11.08;100.00;102342.63;10587534;28;20407;-60
2021/11/05 14:32:12;;;;;;;2.72;1.10;;;;;;;11.09;100.00;102350.38;10587631;28;20069;-60
2021/11/05 14:37:25;;;;;;;1.38;0.60;;;;;;;11.04;100.00;102344.44;10587935;28;20059;-60
2021/11/05 14:42:28;;;;;;;7.90;1.10;;;;;;;10.78;100.00;102350.59;10586894;28;20054;-60
2021/11/05 14:47:40;;;;;;;5.88;0.73;;;;;;;10.60;100.00;102347.66;10586652;28;20055;-60
2021/11/05 14:52:49;;;;;;;5.60;0.93;;;;;;;10.38;100.00;102352.75;10586697;28;20059;-59
2021/11/05 14:57:53;;;;;;;5.57;0.95;;;;;;;10.69;100.00;102369.22;10586420;28;20040;-59
2021/11/05 15:02:55;;;;;;;2.80;1.00;;;;;;;10.39;100.00;102364.09;10585269;28;20044;-60
2021/11/05 15:08:02;;;;;;;9.75;2.40;;;;;;;9.85;100.00;102368.28;10586167;28;20040;-60
2021/11/05 15:13:06;;;;;;;5.65;0.80;;;;;;;10.07;100.00;102383.34;10586042;28;20055;-60
2021/11/05 15:18:09;;;;;;;2.22;0.77;;;;;;;9.99;100.00;102388.81;10585521;28;20101;-60
2021/11/05 15:23:12;;;;;;;5.68;1.00;;;;;;;9.87;100.00;102390.03;10585201;28;20429;-60
2021/11/05 15:28:15;;;;;;;4.90;0.88;;;;;;;9.79;100.00;102395.47;10585362;28;20048;-60
2021/11/05 15:33:21;;;;;;;2.03;0.98;;;;;;;9.92;100.00;102396.00;10566804;28;20475;-60
2021/11/05 15:38:27;;;;;;;6.05;1.20;;;;;;;10.02;100.00;102397.44;10566611;28;20502;-59
2021/11/05 15:43:30;;;;;;;3.60;1.20;;;;;;;9.76;100.00;102395.56;10584512;28;20128;-59
2021/11/05 15:48:33;;;;;;;5.50;1.83;;;;;;;9.60;100.00;102404.75;10584133;28;20066;-60
2021/11/05 15:53:38;;;;;;;6.72;1.42;;;;;;;9.23;100.00;102414.44;10584118;28;20051;-60
2021/11/05 15:58:41;;;;;;;6.32;1.23;;;;;;;9.07;100.00;102424.41;10584322;28;20054;-59
2021/11/05 16:03:45;;;;;;;5.05;1.75;;;;;;;8.95;100.00;102427.34;10583607;28;20487;-60
2021/11/05 16:08:47;;;;;;;9.98;1.98;;;;;;;8.76;100.00;102432.16;10583634;28;20063;-60
2021/11/05 16:13:50;;;;;;;4.75;1.70;;;;;;;8.79;100.00;102426.00;10583155;28;20040;-60
2021/11/05 16:18:52;;;;;;;2.38;1.48;;;;;;;8.46;100.00;102436.34;10583065;28;20494;-59
2021/11/05 16:23:54;;;;;;;4.82;1.70;;;;;;;8.32;100.00;102442.69;10583190;28;20395;-60
2021/11/05 16:28:57;;;;;;;4.70;1.85;;;;;;;8.00;100.00;102444.22;10582516;28;20502;-59
2021/11/05 16:33:59;;;;;;;3.80;1.95;;;;;;;8.25;100.00;102466.31;10582596;28;20054;-60
2021/11/05 16:39:02;;;;;;;6.00;2.83;;;;;;;7.85;100.00;102472.31;10582741;28;20047;-60
2021/11/05 16:44:05;;;;;;;4.80;2.55;;;;;;;7.87;100.00;102481.84;10582381;28;20052;-59
2021/11/05 16:49:11;;;;;;;10.70;3.55;;;;;;;7.78;100.00;102475.06;10582302;28;20058;-59
2021/11/05 16:54:14;;;;;;;11.77;3.53;;;;;;;7.89;100.00;102484.44;10582136;28;20054;-59
2021/11/05 16:59:17;;;;;;;8.40;2.17;;;;;;;7.99;100.00;102493.81;10582015;28;20048;-59
2021/11/05 17:04:19;;;;;;;7.53;2.15;;;;;;;7.80;100.00;102504.59;10582040;28;20376;-60
2021/11/05 17:09:23;;;;;;;8.43;2.90;;;;;;;7.84;100.00;102510.59;10581481;28;20532;-59
2021/11/05 17:14:25;;;;;;;5.55;2.00;;;;;;;8.04;100.00;102515.44;10581979;28;20054;-60
2021/11/05 17:19:28;;;;;;;14.57;3.92;;;;;;;8.11;100.00;102521.41;10581239;28;20097;-59
2021/11/05 17:24:31;;;;;;;11.65;3.97;;;;;;;8.25;100.00;102531.56;10587401;28;20043;-59
2021/11/05 17:29:33;;;;;;;17.98;5.00;;;;;;;8.39;100.00;102526.94;10589888;28;20044;-59
2021/11/05 17:34:35;;;;;;;7.88;2.97;;;;;;;8.32;100.00;102520.09;10590065;28;20043;-57
2021/11/05 17:39:38;;;;;;;4.95;1.65;;;;;;;8.48;100.00;102526.75;10589293;28;20046;-57
2021/11/05 17:44:40;;;;;;;6.90;2.17;;;;;;;8.58;100.00;102545.69;10589234;28;20056;-58
2021/11/05 17:49:42;;;;;;;4.22;1.83;;;;;;;8.61;100.00;102544.75;10588752;28;20066;-58
2021/11/05 17:54:45;;;;;;;9.43;1.70;;;;;;;8.58;100.00;102547.47;10571076;28;20048;-57
2021/11/05 17:59:48;;;;;;;10.50;2.85;;;;;;;8.54;100.00;102555.34;10588786;28;20048;-58
2021/11/05 18:04:50;;;;;;;4.72;3.03;;;;;;;8.65;100.00;102557.72;10588617;28;20050;-58
2021/11/05 18:09:53;;;;;;;9.85;2.20;;;;;;;8.64;100.00;102562.97;10588194;28;20051;-59
2021/11/05 18:14:55;;;;;;;10.60;1.77;;;;;;;8.68;100.00;102560.28;10588153;28;20052;-58
2021/11/05 18:19:58;;;;;;;6.13;1.90;;;;;;;8.63;100.00;102558.66;10587694;28;20051;-57
2021/11/05 18:25:01;;;;;;;6.30;1.50;;;;;;;8.63;100.00;102574.34;10587909;28;20051;-58
2021/11/05 18:30:06;;;;;;;7.00;2.25;;;;;;;8.58;100.00;102582.25;10587500;28;20505;-59
2021/11/05 18:35:09;;;;;;;15.48;2.83;;;;;;;8.53;100.00;102576.28;10586233;28;20050;-57
2021/11/05 18:40:12;;;;;;;9.50;2.50;;;;;;;8.55;100.00;102579.69;10586958;28;20391;-58
2021/11/05 18:45:17;;;;;;;9.05;2.67;;;;;;;8.59;100.00;102581.38;10586646;28;20044;-57
2021/11/05 18:50:22;;;;;;;6.35;2.72;;;;;;;8.28;100.00;102581.94;10569247;28;20048;-58
2021/11/05 18:55:25;;;;;;;7.82;2.67;;;;;;;8.21;100.00;102598.59;10586427;28;20499;-57
2021/11/05 19:00:36;;;;;;;5.35;2.20;;;;;;;8.01;100.00;102601.56;10586479;28;20047;-58
2021/11/05 19:05:38;;;;;;;10.43;2.45;;;;;;;7.77;100.00;102606.31;10586112;28;20092;-58
2021/11/05 19:10:41;;;;;;;10.00;2.88;;;;;;;7.66;100.00;102612.59;10585740;28;20097;-58
2021/11/05 19:15:44;;;;;;;11.85;2.90;;;;;;;7.60;100.00;102613.56;10585874;28;20043;-57
2021/11/05 19:20:46;;;;;;;11.45;2.88;;;;;;;7.29;100.00;102605.34;10585456;28;20055;-56
2021/11/05 19:25:50;;;;;;;6.28;2.28;;;;;;;7.30;100.00;102612.28;10585223;28;20410;-57
2021/11/05 19:30:52;;;;;;;7.47;2.60;;;;;;;7.37;100.00;102614.78;10584781;28;20492;-58
2021/11/05 19:35:55;;;;;;;9.65;3.30;;;;;;;7.32;100.00;102615.72;10585292;28;20043;-57
2021/11/05 19:40:58;;;;;;;10.32;5.45;;;;;;;7.04;100.00;102623.91;10584564;28;20510;-57
2021/11/05 19:46:01;;;;;;;10.70;3.53;;;;;;;7.30;100.00;102626.19;10583902;28;20056;-58
2021/11/05 19:51:05;;;;;;;13.45;4.45;;;;;;;7.22;100.00;102631.47;10584363;28;20054;-58
2021/11/05 19:56:08;;;;;;;13.55;5.80;;;;;;;7.11;100.00;102624.69;10584206;28;20043;-58
2021/11/05 20:01:10;;;;;;;10.00;3.00;;;;;;;7.18;100.00;102632.41;10583548;28;20048;-58
2021/11/05 20:06:12;;;;;;;8.70;3.08;;;;;;;7.10;100.00;102636.03;10583777;28;20399;-57
2021/11/05 20:11:16;;;;;;;7.93;3.20;;;;;;;7.27;100.00;102638.38;10583547;28;20061;-57
2021/11/05 20:16:19;;;;;;;11.05;4.70;;;;;;;7.16;100.00;102641.13;10583525;28;20043;-57
2021/11/05 20:21:22;;;;;;;10.38;5.05;;;;;;;6.96;100.00;102649.19;10582767;28;20047;-57
2021/11/05 20:26:24;;;;;;;12.07;3.95;;;;;;;6.77;100.00;102649.41;10583697;28;20043;-57
2021/11/05 20:31:27;;;;;;;8.98;3.50;;;;;;;6.88;100.00;102654.50;10582849;28;20043;-58
2021/11/05 20:36:30;;;;;;;4.45;2.85;;;;;;;6.93;100.00;102662.28;10582850;28;20039;-57
2021/11/05 20:41:32;;;;;;;14.50;3.97;;;;;;;6.76;100.00;102662.44;10583131;28;20050;-57
2021/11/05 20:46:38;;;;;;;14.60;4.10;;;;;;;6.76;100.00;102676.34;10582233;28;20047;-56
2021/11/05 20:51:44;;;;;;;8.25;4.28;;;;;;;6.77;100.00;102666.78;10582077;28;20491;-58
2021/11/05 20:56:46;;;;;;;7.68;3.13;;;;;;;6.80;100.00;102671.97;10581783;28;20048;-58
2021/11/05 21:01:48;;;;;;;5.60;3.03;;;;;;;6.74;100.00;102675.50;10581679;28;20051;-58
2021/11/05 21:06:51;;;;;;;6.10;3.17;;;;;;;6.61;100.00;102685.19;10563975;28;20048;-58
2021/11/05 21:11:53;;;;;;;5.93;2.70;;;;;;;6.62;100.00;102684.31;10581263;28;20525;-59
2021/11/05 21:16:56;;;;;;;5.53;3.00;;;;;;;6.58;100.00;102690.41;10581758;28;20040;-59
2021/11/05 21:21:58;;;;;;;8.27;3.83;;;;;;;6.51;100.00;102691.38;10581611;28;20070;-58
2021/11/05 21:27:00;;;;;;;8.48;3.63;;;;;;;6.53;100.00;102687.00;10581884;28;20081;-59
2021/11/05 21:32:03;;;;;;;9.07;3.90;;;;;;;6.53;100.00;102692.22;10581718;28;20407;-58
2021/11/05 21:37:06;;;;;;;7.72;2.83;;;;;;;6.47;100.00;102687.94;10580854;28;20521;-58
2021/11/05 21:42:09;;;;;;;6.28;3.58;;;;;;;6.32;100.00;102683.75;10581266;28;20373;-59
2021/11/05 21:47:12;;;;;;;6.38;3.67;;;;;;;6.53;100.00;102679.19;10563494;28;20062;-58
2021/11/05 21:52:14;;;;;;;7.75;3.55;;;;;;;6.46;100.00;102686.19;10580737;28;20047;-59
2021/11/05 21:57:17;;;;;;;9.85;4.07;;;;;;;6.46;100.00;102677.53;10581274;28;20040;-59
2021/11/05 22:02:19;;;;;;;7.53;3.83;;;;;;;6.37;100.00;102690.63;10580486;28;20055;-58
2021/11/05 22:07:21;;;;;;;10.15;4.95;;;;;;;6.68;100.00;102688.59;10580654;28;20039;-58
2021/11/05 22:12:24;;;;;;;14.07;6.38;;;;;;;6.57;100.00;102685.22;10588496;28;20051;-59
2021/11/05 22:17:26;;;;;;;11.27;4.32;;;;;;;6.60;100.00;102687.81;10588762;28;20044;-59
2021/11/05 22:22:31;;;;;;;8.88;3.88;;;;;;;6.54;100.00;102682.66;10587722;28;20485;-58
2021/11/05 22:27:40;;;;;;;5.70;4.30;;;;;;;6.58;100.00;102684.34;10587823;28;20053;-58
2021/11/05 22:32:43;;;;;;;5.07;3.17;;;;;;;6.68;100.00;102678.19;10588041;28;20055;-58
2021/11/05 22:37:46;;;;;;;10.27;4.60;;;;;;;6.60;100.00;102677.41;10587843;28;20051;-58
2021/11/05 22:43:01;;;;;;;7.47;3.78;;;;;;;6.64;100.00;102681.66;10570736;28;20051;-58
2021/11/05 22:48:03;;;;;;;8.40;3.65;;;;;;;6.57;100.00;102685.22;10586834;28;20059;-58
2021/11/05 22:53:06;;;;;;;9.25;3.53;;;;;;;6.57;100.00;102683.47;10586758;28;20044;-58
2021/11/05 22:58:10;;;;;;;7.25;3.53;;;;;;;6.49;100.00;102678.38;10586494;28;20608;-57
2021/11/05 23:03:19;;;;;;;11.40;4.30;;;;;;;6.31;100.00;102675.94;10586358;28;20051;-58
2021/11/05 23:08:24;;;;;;;5.53;4.28;;;;;;;6.41;100.00;102680.19;10586374;28;20043;-57